Time;durP1;ratioP1;P1;durP2;ratioP2;P2;SDS_P1;SDS_P2;PMS_P1;PMS_P2;Temp;Humidity;BMP_temperature;BMP_pressure;BME280_temperature;BME280_humidity;BME280_pressure;Samples;Min_cycle;Max_cycle;Signal;HPM_P1;HPM_P2
2021/10/23 00:02:32;;;;;;;4.33;2.70;;;6.20;99.90;;;;;;4360858;33;20140;-66
2021/10/23 00:05:21;;;;;;;5.13;2.53;;;6.20;99.90;;;;;;4360480;33;20171;-66
2021/10/23 00:08:16;;;;;;;4.70;2.53;;;6.20;99.90;;;;;;4362103;33;20178;-66
2021/10/23 00:14:20;;;;;;;4.63;2.70;;;6.20;99.90;;;;;;4330918;33;20177;-67
2021/10/23 00:17:06;;;;;;;4.90;2.80;;;6.20;99.90;;;;;;4332940;33;20210;-67
2021/10/23 00:20:02;;;;;;;3.33;2.50;;;6.20;99.90;;;;;;4330577;33;20210;-68
2021/10/23 00:22:43;;;;;;;4.60;2.67;;;6.20;99.90;;;;;;4324479;33;20154;-67
2021/10/23 00:25:27;;;;;;;3.90;2.53;;;6.20;99.90;;;;;;4370902;32;20178;-67
2021/10/23 00:28:00;;;;;;;5.27;2.40;;;6.20;99.90;;;;;;4407783;32;20150;-67
2021/10/23 00:31:01;;;;;;;4.47;2.30;;;6.30;99.90;;;;;;4405540;32;20142;-68
2021/10/23 00:34:00;;;;;;;4.60;2.40;;;6.30;99.90;;;;;;4331760;33;20428;-68
2021/10/23 00:36:56;;;;;;;6.27;2.50;;;6.30;99.90;;;;;;4330963;33;20217;-68
2021/10/23 00:39:41;;;;;;;3.90;2.63;;;6.30;99.90;;;;;;4333008;33;20574;-68
2021/10/23 00:42:36;;;;;;;2.97;2.30;;;6.30;99.90;;;;;;4330900;33;20597;-68
2021/10/23 00:45:13;;;;;;;3.47;2.17;;;6.30;99.90;;;;;;4330437;33;20268;-68
2021/10/23 00:47:49;;;;;;;6.83;2.60;;;6.30;99.90;;;;;;4344320;33;20151;-69
2021/10/23 00:50:26;;;;;;;4.83;2.40;;;6.40;99.90;;;;;;4359891;32;20310;-69
2021/10/23 00:53:16;;;;;;;4.43;2.33;;;6.30;99.90;;;;;;4389477;32;20182;-69
2021/10/23 00:56:43;;;;;;;5.40;2.50;;;6.40;99.90;;;;;;4389308;32;20175;-69
2021/10/23 00:59:45;;;;;;;3.80;2.50;;;6.40;99.90;;;;;;4392148;32;20141;-69
2021/10/23 01:02:25;;;;;;;2.80;2.00;;;6.40;99.90;;;;;;4391533;32;20200;-69
2021/10/23 01:05:21;;;;;;;5.33;2.73;;;6.40;99.90;;;;;;4390661;32;20147;-70
2021/10/23 01:08:04;;;;;;;4.50;2.53;;;6.40;99.90;;;;;;4391903;32;20157;-68
2021/10/23 01:14:13;;;;;;;4.80;2.30;;;6.30;99.90;;;;;;4440722;32;20188;-69
2021/10/23 01:17:15;;;;;;;3.83;2.50;;;6.30;99.90;;;;;;4407846;32;20146;-68
2021/10/23 01:19:53;;;;;;;3.23;2.37;;;6.30;99.90;;;;;;4408090;32;20145;-69
2021/10/23 01:22:28;;;;;;;3.00;2.23;;;6.30;99.90;;;;;;4408003;32;20512;-69
2021/10/23 01:25:17;;;;;;;5.37;2.80;;;6.30;99.90;;;;;;4406934;32;20282;-69
2021/10/23 01:27:54;;;;;;;2.60;2.33;;;6.30;99.90;;;;;;4409162;32;20463;-68
2021/10/23 01:30:30;;;;;;;4.30;2.53;;;6.20;99.90;;;;;;4407572;32;20177;-69
2021/10/23 01:33:40;;;;;;;3.87;2.50;;;6.20;99.90;;;;;;4411527;32;20515;-69
2021/10/23 01:36:39;;;;;;;3.63;2.73;;;6.20;99.90;;;;;;4422004;32;20161;-69
2021/10/23 01:39:39;;;;;;;5.53;2.80;;;6.10;99.90;;;;;;4394551;32;20430;-69
2021/10/23 01:42:31;;;;;;;5.53;3.00;;;6.10;99.90;;;;;;4419816;32;20592;-69
2021/10/23 01:45:22;;;;;;;6.17;2.80;;;6.10;99.90;;;;;;4423154;32;20167;-69
2021/10/23 01:48:05;;;;;;;4.20;2.80;;;6.20;99.90;;;;;;4422787;32;20195;-70
2021/10/23 01:51:01;;;;;;;5.00;2.60;;;6.20;99.90;;;;;;4422357;32;20136;-70
2021/10/23 01:53:45;;;;;;;4.00;2.87;;;6.20;99.90;;;;;;4423195;32;20191;-69
2021/10/23 01:56:31;;;;;;;5.40;2.50;;;6.20;99.90;;;;;;4422314;32;20143;-69
2021/10/23 01:59:24;;;;;;;4.90;2.50;;;6.20;99.90;;;;;;4423871;32;20192;-69
2021/10/23 02:02:01;;;;;;;4.57;2.50;;;6.30;99.90;;;;;;4424171;32;20502;-69
2021/10/23 02:04:51;;;;;;;4.60;2.33;;;6.30;99.90;;;;;;4424517;32;20156;-69
2021/10/23 02:07:43;;;;;;;5.80;2.60;;;6.30;99.90;;;;;;4424308;32;20176;-69
2021/10/23 02:10:27;;;;;;;3.17;2.30;;;6.30;99.90;;;;;;4422701;32;20196;-69
2021/10/23 02:13:07;;;;;;;6.47;2.20;;;6.30;99.90;;;;;;4424300;32;20179;-68
2021/10/23 02:15:41;;;;;;;6.27;2.13;;;6.30;99.90;;;;;;4439905;32;20151;-68
2021/10/23 02:18:27;;;;;;;7.17;2.10;;;6.30;99.90;;;;;;4455890;32;20406;-68
2021/10/23 02:21:13;;;;;;;3.17;2.03;;;6.30;99.90;;;;;;4456184;32;20133;-70
2021/10/23 02:23:57;;;;;;;6.80;2.10;;;6.30;99.90;;;;;;4457093;32;20140;-68
2021/10/23 02:27:01;;;;;;;3.40;1.83;;;6.30;99.90;;;;;;4456048;32;20381;-68
2021/10/23 02:29:56;;;;;;;4.23;1.90;;;6.30;99.90;;;;;;4391569;32;20203;-68
2021/10/23 02:32:53;;;;;;;4.00;1.90;;;6.30;99.90;;;;;;4345295;33;20381;-68
2021/10/23 02:35:27;;;;;;;3.43;1.80;;;6.30;99.90;;;;;;4348363;33;20253;-67
2021/10/23 02:38:10;;;;;;;4.10;2.13;;;6.30;99.90;;;;;;4347324;33;20456;-68
2021/10/23 02:40:56;;;;;;;4.30;1.70;;;6.30;99.90;;;;;;4346303;33;20248;-68
2021/10/23 02:43:37;;;;;;;5.00;1.77;;;6.30;99.90;;;;;;4303224;33;20476;-68
2021/10/23 02:46:11;;;;;;;3.70;1.60;;;6.20;99.90;;;;;;4302551;33;20567;-69
2021/10/23 02:49:11;;;;;;;4.83;1.80;;;6.20;99.90;;;;;;4303467;33;20177;-69
2021/10/23 02:51:50;;;;;;;4.70;1.47;;;6.10;99.90;;;;;;4303011;33;20175;-68
2021/10/23 02:54:28;;;;;;;4.37;1.63;;;6.00;99.90;;;;;;4303008;33;20176;-69
2021/10/23 02:57:17;;;;;;;4.27;1.60;;;5.90;99.90;;;;;;4259898;33;20157;-68
2021/10/23 03:00:01;;;;;;;4.30;1.50;;;5.90;99.90;;;;;;4259339;33;20228;-68
2021/10/23 03:02:51;;;;;;;6.77;1.60;;;5.90;99.90;;;;;;4265633;33;20603;-69
2021/10/23 03:05:47;;;;;;;3.60;1.47;;;5.80;99.90;;;;;;4258733;33;20155;-69
2021/10/23 03:08:25;;;;;;;4.20;1.70;;;5.80;99.90;;;;;;4317495;33;20143;-68
2021/10/23 03:11:14;;;;;;;3.23;1.57;;;5.80;99.90;;;;;;4317115;33;20434;-68
2021/10/23 03:13:57;;;;;;;4.37;1.73;;;5.80;99.90;;;;;;4327919;33;20520;-68
2021/10/23 03:16:36;;;;;;;4.43;1.90;;;5.70;99.90;;;;;;4361491;33;20147;-67
2021/10/23 03:19:34;;;;;;;2.87;1.60;;;5.70;99.90;;;;;;4302704;33;20160;-68
2021/10/23 03:22:22;;;;;;;12.13;2.70;;;5.80;99.90;;;;;;4302895;33;20201;-68
2021/10/23 03:25:24;;;;;;;3.73;1.63;;;5.80;99.90;;;;;;4302461;33;20184;-69
2021/10/23 03:28:09;;;;;;;2.57;1.67;;;5.80;99.90;;;;;;4302488;33;20465;-68
2021/10/23 03:30:43;;;;;;;3.47;1.70;;;5.90;99.90;;;;;;4308796;33;20281;-68
2021/10/23 03:33:30;;;;;;;4.47;1.70;;;5.90;99.90;;;;;;4318544;33;20172;-68
2021/10/23 03:36:09;;;;;;;5.60;1.80;;;5.80;99.90;;;;;;4347154;33;20153;-68
2021/10/23 03:38:46;;;;;;;6.07;1.87;;;5.80;99.90;;;;;;4347877;33;20175;-69
2021/10/23 03:41:46;;;;;;;9.40;1.90;;;5.80;99.90;;;;;;4344115;32;20227;-67
2021/10/23 03:44:58;;;;;;;4.00;2.40;;;5.80;99.90;;;;;;4407685;32;20156;-69
2021/10/23 03:47:39;;;;;;;4.23;1.83;;;5.80;99.90;;;;;;4346517;33;20144;-68
2021/10/23 03:50:11;;;;;;;5.67;2.10;;;5.80;99.90;;;;;;4346112;33;20169;-68
2021/10/23 03:53:03;;;;;;;5.00;1.80;;;5.80;99.90;;;;;;4346930;33;20145;-68
2021/10/23 03:55:56;;;;;;;6.07;2.00;;;5.80;99.90;;;;;;4363839;32;20271;-68
2021/10/23 03:58:37;;;;;;;3.63;1.77;;;5.80;99.90;;;;;;4392398;32;20550;-68
2021/10/23 04:01:35;;;;;;;4.23;1.80;;;5.70;99.90;;;;;;4391741;32;20484;-67
2021/10/23 04:04:17;;;;;;;5.93;2.30;;;5.70;99.90;;;;;;4392704;32;20533;-67
2021/10/23 04:06:53;;;;;;;2.90;1.67;;;5.70;99.90;;;;;;4390814;32;20172;-68
2021/10/23 04:09:22;;;;;;;5.83;2.00;;;5.70;99.90;;;;;;4391032;32;20545;-67
2021/10/23 04:11:59;;;;;;;4.07;1.97;;;5.60;99.90;;;;;;4390153;32;20199;-67
2021/10/23 04:14:38;;;;;;;9.17;2.10;;;5.60;99.90;;;;;;4390478;32;20271;-68
2021/10/23 04:17:16;;;;;;;4.97;1.90;;;5.60;99.90;;;;;;4391733;32;20147;-68
2021/10/23 04:20:10;;;;;;;4.33;1.93;;;5.60;99.90;;;;;;4390768;32;20184;-68
2021/10/23 04:23:01;;;;;;;4.77;2.00;;;5.60;99.90;;;;;;4438893;32;20178;-67
2021/10/23 04:25:35;;;;;;;5.30;1.80;;;5.60;99.90;;;;;;4440232;32;20173;-68
2021/10/23 04:28:34;;;;;;;5.33;1.90;;;5.60;99.90;;;;;;4438696;32;20196;-68
2021/10/23 04:31:23;;;;;;;7.47;2.50;;;5.60;99.90;;;;;;4439788;32;20149;-68
2021/10/23 04:33:54;;;;;;;6.43;2.00;;;5.70;99.90;;;;;;4453492;32;20168;-68
2021/10/23 04:36:46;;;;;;;4.00;1.97;;;5.80;99.90;;;;;;4406068;32;20291;-68
2021/10/23 04:39:33;;;;;;;7.37;1.87;;;5.80;99.90;;;;;;4407644;32;20222;-68
2021/10/23 04:42:20;;;;;;;8.70;2.20;;;5.80;99.90;;;;;;4407449;32;20143;-68
2021/10/23 04:45:04;;;;;;;7.10;1.97;;;5.90;99.90;;;;;;4408510;32;20219;-68
2021/10/23 04:47:51;;;;;;;7.93;2.30;;;5.90;99.90;;;;;;4409159;32;20234;-69
2021/10/23 04:50:27;;;;;;;7.33;2.37;;;5.90;99.90;;;;;;4408284;32;20419;-68
2021/10/23 04:52:58;;;;;;;5.00;2.10;;;6.00;99.90;;;;;;4408090;32;20199;-68
2021/10/23 04:55:50;;;;;;;5.60;2.30;;;6.00;99.90;;;;;;4409466;32;20206;-68
2021/10/23 04:58:36;;;;;;;9.53;2.13;;;6.00;99.90;;;;;;4409897;32;20464;-68
2021/10/23 05:01:37;;;;;;;3.87;2.10;;;6.00;99.90;;;;;;4363356;32;20181;-68
2021/10/23 05:04:13;;;;;;;6.33;2.20;;;6.00;99.90;;;;;;4363073;33;20181;-70
2021/10/23 05:07:20;;;;;;;5.27;2.07;;;6.00;99.90;;;;;;4304631;33;20165;-68
2021/10/23 05:10:09;;;;;;;4.90;1.97;;;6.10;99.90;;;;;;4304513;33;20157;-67
2021/10/23 05:12:41;;;;;;;6.97;2.20;;;6.10;99.90;;;;;;4305832;33;20177;-68
2021/10/23 05:15:24;;;;;;;4.50;1.93;;;6.10;99.90;;;;;;4364130;32;20241;-67
2021/10/23 05:18:16;;;;;;;7.07;1.97;;;6.10;99.90;;;;;;4358977;32;20171;-68
2021/10/23 05:21:01;;;;;;;6.70;2.13;;;6.10;99.90;;;;;;4362740;32;20178;-71
2021/10/23 05:26:54;;;;;;;6.67;2.37;;;6.20;99.90;;;;;;4362138;32;20515;-67
2021/10/23 05:29:41;;;;;;;5.83;2.00;;;6.10;99.90;;;;;;4363875;32;20461;-68
2021/10/23 05:32:18;;;;;;;7.37;2.03;;;6.20;99.90;;;;;;4362903;33;20152;-67
2021/10/23 05:35:22;;;;;;;7.73;2.37;;;6.20;99.90;;;;;;4362850;33;20181;-68
2021/10/23 05:38:01;;;;;;;7.30;2.20;;;6.20;99.90;;;;;;4394319;32;20199;-68
2021/10/23 05:40:52;;;;;;;9.03;2.07;;;6.20;99.90;;;;;;4362231;33;20327;-67
2021/10/23 05:43:50;;;;;;;7.07;2.47;;;6.20;99.90;;;;;;4377517;32;20489;-69
2021/10/23 05:46:43;;;;;;;7.70;2.10;;;6.30;99.90;;;;;;4422567;32;20194;-68
2021/10/23 05:49:23;;;;;;;9.07;2.40;;;6.30;99.90;;;;;;4424653;32;20174;-67
2021/10/23 05:51:58;;;;;;;7.33;2.20;;;6.30;99.90;;;;;;4422768;32;20200;-68
2021/10/23 05:54:50;;;;;;;7.13;2.10;;;6.30;99.90;;;;;;4422202;32;20179;-67
2021/10/23 05:58:02;;;;;;;6.23;2.23;;;6.30;99.90;;;;;;4412391;32;20195;-68
2021/10/23 06:00:51;;;;;;;9.00;2.47;;;6.30;99.90;;;;;;4423120;32;20160;-68
2021/10/23 06:07:04;;;;;;;7.23;2.27;;;6.30;99.90;;;;;;4377110;32;20198;-68
2021/10/23 06:09:45;;;;;;;6.47;2.00;;;6.30;99.90;;;;;;4377347;32;20192;-65
2021/10/23 06:12:22;;;;;;;7.47;2.20;;;6.30;99.90;;;;;;4390421;32;20160;-68
2021/10/23 06:15:20;;;;;;;8.23;2.37;;;6.40;99.90;;;;;;4393431;32;20236;-68
2021/10/23 06:18:02;;;;;;;8.67;2.70;;;6.30;99.90;;;;;;4382291;32;20457;-66
2021/10/23 06:20:53;;;;;;;7.23;2.90;;;6.30;99.90;;;;;;4393242;32;20186;-67
2021/10/23 06:23:30;;;;;;;9.53;2.90;;;6.30;99.90;;;;;;4391592;32;20257;-68
2021/10/23 06:26:27;;;;;;;12.53;3.10;;;6.40;99.90;;;;;;4391784;32;20165;-68
2021/10/23 06:29:00;;;;;;;7.57;2.73;;;6.40;99.90;;;;;;4393741;32;20456;-69
2021/10/23 06:31:43;;;;;;;6.33;2.57;;;6.40;99.90;;;;;;4391945;32;20172;-68
2021/10/23 06:34:21;;;;;;;8.57;3.10;;;6.40;99.90;;;;;;4393479;32;20249;-67
2021/10/23 06:37:08;;;;;;;9.40;2.90;;;6.40;99.90;;;;;;4391647;32;20243;-67
2021/10/23 06:39:56;;;;;;;7.50;3.20;;;6.30;99.90;;;;;;4391619;32;20208;-68
2021/10/23 06:42:42;;;;;;;10.00;3.57;;;6.30;99.90;;;;;;4400152;32;20391;-68
2021/10/23 06:45:29;;;;;;;7.00;2.83;;;6.30;99.90;;;;;;4454914;32;20159;-68
2021/10/23 06:48:03;;;;;;;10.57;3.20;;;6.20;99.90;;;;;;4454547;32;20285;-68
2021/10/23 06:50:41;;;;;;;9.43;3.47;;;6.30;99.90;;;;;;4455090;32;20314;-68
2021/10/23 06:53:21;;;;;;;6.80;3.43;;;6.30;99.90;;;;;;4456445;32;20501;-67
2021/10/23 06:56:16;;;;;;;7.70;3.03;;;6.30;99.90;;;;;;4454958;32;20492;-68
2021/10/23 06:58:55;;;;;;;10.47;3.30;;;6.30;99.90;;;;;;4454726;32;20147;-67
2021/10/23 07:01:56;;;;;;;5.70;2.83;;;6.30;99.90;;;;;;4456408;32;20155;-67
2021/10/23 07:04:50;;;;;;;7.70;2.73;;;6.30;99.90;;;;;;4456606;32;20200;-67
2021/10/23 07:07:44;;;;;;;5.97;2.70;;;6.40;99.90;;;;;;4455926;32;20465;-67
2021/10/23 07:10:24;;;;;;;10.20;2.70;;;6.50;99.90;;;;;;4455371;32;20144;-68
2021/10/23 07:13:10;;;;;;;8.53;3.00;;;6.60;99.90;;;;;;4455047;32;20400;-68
2021/10/23 07:16:06;;;;;;;7.93;2.90;;;6.60;99.90;;;;;;4454242;32;20212;-68
2021/10/23 07:19:01;;;;;;;10.03;2.77;;;6.60;99.90;;;;;;4454355;32;20170;-68
2021/10/23 07:21:39;;;;;;;7.23;2.87;;;6.70;99.90;;;;;;4455079;32;20166;-68
2021/10/23 07:24:49;;;;;;;9.20;2.50;;;6.80;99.90;;;;;;4421704;32;20159;-67
2021/10/23 07:27:22;;;;;;;7.30;2.53;;;6.80;99.90;;;;;;4420803;32;20174;-68
2021/10/23 07:30:32;;;;;;;8.67;2.67;;;6.80;99.90;;;;;;4414391;32;20161;-67
2021/10/23 07:33:07;;;;;;;9.47;3.00;;;6.90;99.90;;;;;;4375093;32;20227;-68
2021/10/23 07:36:01;;;;;;;9.00;2.50;;;6.90;99.90;;;;;;4375748;32;20175;-68
2021/10/23 07:41:45;;;;;;;12.20;2.40;;;6.80;99.90;;;;;;4376853;32;20176;-68
2021/10/23 07:44:34;;;;;;;7.50;2.50;;;6.80;99.90;;;;;;4375728;32;20495;-69
2021/10/23 07:47:57;;;;;;;5.87;2.27;;;6.80;99.90;;;;;;4375692;32;20155;-68
2021/10/23 07:50:29;;;;;;;8.33;2.50;;;6.80;99.90;;;;;;4301927;33;20168;-69
2021/10/23 07:53:14;;;;;;;7.97;2.30;;;6.80;99.90;;;;;;4303677;33;20190;-68
2021/10/23 07:56:01;;;;;;;12.63;2.50;;;6.80;99.90;;;;;;4301983;33;20176;-68
2021/10/23 07:58:33;;;;;;;7.07;2.77;;;6.90;99.90;;;;;;4301901;33;20188;-67
2021/10/23 08:01:21;;;;;;;6.53;2.30;;;6.90;99.90;;;;;;4308174;33;20183;-67
2021/10/23 08:04:02;;;;;;;7.67;2.50;;;6.80;99.90;;;;;;4315983;33;20479;-67
2021/10/23 08:06:46;;;;;;;11.10;2.70;;;6.80;99.90;;;;;;4316565;33;20203;-66
2021/10/23 08:09:37;;;;;;;9.00;2.77;;;6.90;99.90;;;;;;4347812;32;20239;-68
2021/10/23 08:12:30;;;;;;;7.90;2.27;;;6.90;99.90;;;;;;4331300;33;20462;-67
2021/10/23 08:15:36;;;;;;;6.80;2.43;;;6.90;99.90;;;;;;4287269;33;20169;-68
2021/10/23 08:18:23;;;;;;;10.80;2.57;;;7.00;99.90;;;;;;4287076;33;20180;-66
2021/10/23 08:20:58;;;;;;;8.83;2.27;;;6.90;99.90;;;;;;4329323;33;20237;-68
2021/10/23 08:23:39;;;;;;;8.00;2.57;;;7.00;99.90;;;;;;4350169;33;20172;-69
2021/10/23 08:26:22;;;;;;;6.67;2.30;;;7.00;99.90;;;;;;4348769;33;20176;-69
2021/10/23 08:29:06;;;;;;;10.83;2.50;;;7.00;99.90;;;;;;4348932;33;20238;-69
2021/10/23 08:31:56;;;;;;;11.03;2.97;;;7.00;99.90;;;;;;4348304;33;20186;-69
2021/10/23 08:34:42;;;;;;;;;;;;;;;;;;;;;
2021/10/23 08:37:44;;;;;;;7.50;2.10;;;7.10;99.90;;;;;;4359245;32;20243;-68
2021/10/23 08:40:34;;;;;;;9.47;2.60;;;7.20;99.90;;;;;;4362736;32;20153;-68
2021/10/23 08:43:13;;;;;;;7.53;2.00;;;7.20;99.90;;;;;;4363265;32;20138;-67
2021/10/23 08:46:08;;;;;;;8.17;2.50;;;7.20;99.90;;;;;;4362511;32;20186;-66
2021/10/23 08:49:06;;;;;;;9.07;2.77;;;7.20;99.90;;;;;;4326816;33;20142;-67
2021/10/23 08:52:03;;;;;;;7.77;2.20;;;7.30;99.90;;;;;;4315164;33;20461;-69
2021/10/23 08:54:52;;;;;;;9.47;2.40;;;7.30;99.90;;;;;;4334879;33;20157;-67
2021/10/23 08:57:34;;;;;;;6.13;2.23;;;7.30;99.90;;;;;;4335579;33;20181;-66
2021/10/23 09:00:28;;;;;;;7.83;2.57;;;7.30;99.90;;;;;;4334170;33;20151;-67
2021/10/23 09:03:14;;;;;;;8.27;2.43;;;7.30;99.90;;;;;;4334335;33;20133;-67
2021/10/23 09:06:20;;;;;;;9.33;2.40;;;7.30;99.90;;;;;;4334527;33;20148;-68
2021/10/23 09:09:14;;;;;;;9.83;2.47;;;7.20;99.90;;;;;;4334703;33;20189;-69
2021/10/23 09:11:50;;;;;;;8.00;2.57;;;7.20;99.90;;;;;;4334931;33;20195;-70
2021/10/23 09:14:38;;;;;;;7.87;2.50;;;7.20;99.90;;;;;;4333298;33;20199;-71
2021/10/23 09:17:32;;;;;;;5.97;2.93;;;7.20;99.90;;;;;;4333473;33;20233;-69
2021/10/23 09:20:24;;;;;;;10.17;2.30;;;7.20;99.90;;;;;;4345670;33;20208;-68
2021/10/23 09:23:06;;;;;;;10.30;3.30;;;7.20;99.90;;;;;;4347721;33;20422;-68
2021/10/23 09:29:36;;;;;;;10.30;2.90;;;7.30;99.90;;;;;;4429230;32;20199;-69
2021/10/23 09:32:22;;;;;;;6.10;2.27;;;7.40;99.90;;;;;;4442495;32;20157;-70
2021/10/23 09:35:16;;;;;;;7.93;2.30;;;7.30;99.90;;;;;;4442490;32;20146;-69
2021/10/23 09:38:07;;;;;;;10.47;2.70;;;7.40;99.90;;;;;;4442064;32;20119;-69
2021/10/23 09:40:49;;;;;;;13.90;2.57;;;7.40;99.90;;;;;;4440667;32;20412;-70
2021/10/23 09:43:32;;;;;;;10.77;2.80;;;7.40;99.90;;;;;;4440703;32;20419;-70
2021/10/23 09:46:44;;;;;;;9.60;3.13;;;7.40;99.90;;;;;;4440468;32;20187;-72
2021/10/23 09:50:09;;;;;;;7.97;2.47;;;7.40;99.90;;;;;;4442196;32;20156;-70
2021/10/23 09:53:17;;;;;;;10.63;2.60;;;7.40;99.90;;;;;;4378700;32;20214;-70
2021/10/23 09:55:52;;;;;;;9.53;2.67;;;7.50;99.90;;;;;;4377092;32;20208;-69
2021/10/23 09:58:36;;;;;;;11.03;2.90;;;7.60;99.90;;;;;;4378186;32;20518;-69
2021/10/23 10:01:13;;;;;;;10.57;2.80;;;7.60;99.90;;;;;;4377207;32;20151;-71
2021/10/23 10:04:25;;;;;;;10.87;2.50;;;7.60;99.90;;;;;;4317592;33;20232;-70
2021/10/23 10:07:07;;;;;;;7.87;2.80;;;7.70;99.90;;;;;;4318600;33;20213;-70
2021/10/23 10:09:54;;;;;;;9.53;2.47;;;7.80;99.90;;;;;;4317484;33;20285;-72
2021/10/23 10:12:21;;;;;;;10.10;2.30;;;7.80;99.90;;;;;;4330214;33;20156;-71
2021/10/23 10:14:59;;;;;;;7.70;2.40;;;7.80;99.90;;;;;;4331399;33;20176;-70
2021/10/23 10:17:42;;;;;;;10.80;2.73;;;7.90;99.90;;;;;;4334014;33;20207;-71
2021/10/23 10:20:29;;;;;;;9.03;2.63;;;8.30;99.90;;;;;;4334316;33;20143;-70
2021/10/23 10:23:10;;;;;;;10.90;2.60;;;8.60;99.90;;;;;;4332058;33;20218;-70
2021/10/23 10:26:29;;;;;;;12.83;2.80;;;8.70;99.90;;;;;;4332351;33;20209;-72
2021/10/23 10:29:28;;;;;;;9.23;2.43;;;8.50;99.90;;;;;;4329208;33;20280;-71
2021/10/23 10:32:18;;;;;;;7.90;2.43;;;8.60;99.90;;;;;;4332264;33;20501;-70
2021/10/23 10:44:37;;;;;;;5.97;2.10;;;8.30;99.90;;;;;;4391668;32;20221;-68
2021/10/23 10:47:18;;;;;;;10.13;2.53;;;8.30;99.90;;;;;;4387370;32;20167;-69
2021/10/23 10:49:57;;;;;;;6.73;2.70;;;8.20;99.90;;;;;;4380597;32;20219;-68
2021/10/23 10:53:25;;;;;;;9.60;2.50;;;8.10;99.90;;;;;;4376336;32;20182;-68
2021/10/23 10:56:16;;;;;;;8.57;2.60;;;8.10;99.90;;;;;;4347490;33;20141;-68
2021/10/23 10:59:03;;;;;;;15.33;2.90;;;8.00;99.90;;;;;;4346684;33;20185;-68
2021/10/23 11:02:12;;;;;;;10.57;2.63;;;8.00;99.90;;;;;;4346410;33;20390;-69
2021/10/23 11:05:32;;;;;;;8.47;2.40;;;7.90;99.90;;;;;;4386948;32;20146;-68
2021/10/23 11:08:36;;;;;;;8.67;2.73;;;7.90;99.90;;;;;;4375921;32;20159;-69
2021/10/23 11:11:41;;;;;;;8.47;2.93;;;8.00;99.90;;;;;;4377507;32;20157;-68
2021/10/23 11:14:33;;;;;;;12.93;2.90;;;7.90;99.90;;;;;;4374331;32;20169;-70
2021/10/23 11:17:13;;;;;;;15.20;3.27;;;8.00;99.90;;;;;;4375757;32;20187;-68
2021/10/23 11:19:53;;;;;;;9.67;2.77;;;8.00;99.90;;;;;;4377319;32;20436;-67
2021/10/23 11:22:35;;;;;;;9.50;2.90;;;8.00;99.90;;;;;;4376022;32;20154;-68
2021/10/23 11:25:17;;;;;;;8.60;2.60;;;8.10;99.90;;;;;;4375656;32;20491;-68
2021/10/23 11:28:12;;;;;;;10.90;2.83;;;8.20;99.90;;;;;;4377603;32;20213;-72
2021/10/23 11:30:59;;;;;;;13.27;3.23;;;8.10;99.90;;;;;;4375598;32;20151;-67
2021/10/23 11:33:36;;;;;;;10.87;2.33;;;8.10;99.90;;;;;;4399145;32;20218;-68
2021/10/23 11:36:20;;;;;;;8.40;2.90;;;8.10;99.90;;;;;;4407705;32;20213;-69
2021/10/23 11:39:26;;;;;;;12.97;3.23;;;8.00;99.90;;;;;;4406162;32;20199;-70
2021/10/23 11:42:15;;;;;;;9.67;3.07;;;8.10;99.90;;;;;;4406184;32;20401;-69
2021/10/23 11:45:23;;;;;;;10.87;3.03;;;8.10;99.90;;;;;;4393900;32;20467;-69
2021/10/23 11:48:18;;;;;;;7.70;2.17;;;7.90;99.90;;;;;;4404718;32;20586;-68
2021/10/23 11:51:02;;;;;;;9.73;2.60;;;7.70;99.90;;;;;;4405460;32;20151;-69
2021/10/23 11:53:56;;;;;;;13.77;3.30;;;7.60;99.90;;;;;;4404088;32;20205;-68
2021/10/23 11:56:46;;;;;;;8.30;2.80;;;7.50;99.90;;;;;;4406468;32;20190;-70
2021/10/23 12:02:25;;;;;;;13.57;2.90;;;7.40;99.90;;;;;;4346134;33;20447;-67
2021/10/23 12:05:37;;;;;;;12.53;3.10;;;7.60;99.90;;;;;;4344567;33;20174;-68
2021/10/23 12:08:28;;;;;;;14.03;3.00;;;7.60;99.90;;;;;;4346030;33;20156;-69
2021/10/23 12:11:10;;;;;;;9.80;3.13;;;7.70;99.90;;;;;;4351181;33;20239;-70
2021/10/23 12:13:54;;;;;;;11.27;2.83;;;7.70;99.90;;;;;;4356187;33;20174;-70
2021/10/23 12:16:43;;;;;;;8.23;2.93;;;7.70;99.90;;;;;;4360733;33;20224;-82
2021/10/23 12:19:44;;;;;;;10.87;3.07;;;7.70;99.90;;;;;;4331513;33;20199;-69
2021/10/23 12:22:50;;;;;;;8.53;2.70;;;7.70;99.90;;;;;;4354036;32;20159;-68
2021/10/23 12:25:39;;;;;;;8.00;2.80;;;7.80;99.90;;;;;;4316612;33;20160;-68
2021/10/23 12:28:19;;;;;;;7.40;3.10;;;7.90;99.90;;;;;;4316034;33;20175;-68
2021/10/23 12:30:58;;;;;;;9.07;3.37;;;7.90;99.90;;;;;;4315896;33;20156;-68
2021/10/23 12:33:30;;;;;;;11.27;3.20;;;8.00;99.90;;;;;;4316465;33;20143;-70
2021/10/23 12:36:52;;;;;;;15.57;3.97;;;8.00;99.90;;;;;;4316075;33;20184;-70
2021/10/23 12:40:00;;;;;;;7.93;2.77;;;7.90;99.90;;;;;;4306458;33;20184;-71
2021/10/23 12:43:17;;;;;;;11.83;3.23;;;7.90;99.90;;;;;;4316663;33;20152;-70
2021/10/23 12:46:07;;;;;;;8.07;2.87;;;7.90;99.90;;;;;;4315746;33;20165;-70
2021/10/23 12:48:56;;;;;;;9.07;3.67;;;8.00;99.90;;;;;;4316363;33;20153;-69
2021/10/23 12:51:32;;;;;;;10.40;3.47;;;7.90;99.90;;;;;;4316086;33;20472;-69
2021/10/23 12:54:09;;;;;;;12.17;3.33;;;7.90;99.90;;;;;;4315875;33;20180;-68
2021/10/23 12:56:59;;;;;;;13.53;3.53;;;7.80;99.90;;;;;;4316142;33;20510;-69
2021/10/23 13:03:01;;;;;;;9.77;3.40;;;8.10;99.90;;;;;;4355293;32;20143;-69
2021/10/23 13:05:50;;;;;;;9.60;3.53;;;8.30;99.90;;;;;;4391510;32;20314;-70
2021/10/23 13:08:45;;;;;;;9.00;3.47;;;8.30;99.90;;;;;;4392792;32;20166;-70
2021/10/23 13:11:20;;;;;;;13.37;3.70;;;8.30;99.90;;;;;;4392928;32;20514;-68
2021/10/23 13:14:22;;;;;;;11.97;3.87;;;8.20;99.90;;;;;;4404831;32;20214;-68
2021/10/23 13:16:58;;;;;;;10.03;3.57;;;8.20;99.90;;;;;;4456643;32;20213;-68
2021/10/23 13:19:41;;;;;;;11.77;4.20;;;8.10;99.90;;;;;;4457852;32;20123;-69
2021/10/23 13:22:49;;;;;;;12.20;3.47;;;8.10;99.90;;;;;;4457736;32;20133;-69
2021/10/23 13:25:25;;;;;;;13.20;3.90;;;8.20;99.90;;;;;;4456113;32;20412;-68
2021/10/23 13:28:28;;;;;;;10.87;3.40;;;8.20;99.90;;;;;;4456215;32;20140;-69
2021/10/23 13:31:40;;;;;;;15.50;3.53;;;8.20;99.90;;;;;;4456146;32;20248;-69
2021/10/23 13:34:24;;;;;;;10.60;2.93;;;8.20;99.90;;;;;;4392743;32;20173;-70
2021/10/23 13:37:05;;;;;;;12.47;3.23;;;8.30;99.90;;;;;;4392598;32;20159;-71
2021/10/23 13:39:47;;;;;;;11.20;3.37;;;8.30;99.90;;;;;;4392702;32;20570;-70
2021/10/23 13:42:20;;;;;;;10.60;3.13;;;8.40;99.90;;;;;;4392418;32;20421;-70
2021/10/23 13:44:54;;;;;;;11.63;3.20;;;8.40;99.90;;;;;;4392013;32;20208;-70
2021/10/23 13:47:43;;;;;;;12.23;3.47;;;8.50;99.90;;;;;;4392351;32;20444;-70
2021/10/23 13:50:25;;;;;;;10.83;3.30;;;8.60;99.90;;;;;;4394528;32;20420;-69
2021/10/23 13:53:10;;;;;;;14.23;3.57;;;8.60;99.90;;;;;;4392110;32;20365;-69
2021/10/23 13:55:52;;;;;;;9.40;3.00;;;8.70;99.90;;;;;;4391864;32;20493;-71
2021/10/23 13:58:44;;;;;;;12.57;3.00;;;8.80;99.90;;;;;;4394018;32;20512;-70
2021/10/23 14:01:36;;;;;;;9.10;2.50;;;8.90;99.90;;;;;;4392286;32;20190;-70
2021/10/23 14:07:46;;;;;;;11.87;2.90;;;9.10;99.90;;;;;;4394143;32;20225;-70
2021/10/23 14:10:35;;;;;;;10.60;2.63;;;9.00;99.90;;;;;;4403250;32;20146;-69
2021/10/23 14:13:11;;;;;;;14.03;3.53;;;8.80;99.90;;;;;;4455281;32;20195;-69
2021/10/23 14:15:58;;;;;;;10.70;2.50;;;8.70;99.90;;;;;;4454658;32;20165;-70
2021/10/23 14:18:42;;;;;;;14.40;3.53;;;8.60;99.90;;;;;;4454973;32;20410;-70
2021/10/23 14:21:47;;;;;;;10.87;3.10;;;8.50;99.90;;;;;;4422671;32;20177;-70
2021/10/23 14:24:29;;;;;;;4.73;1.73;;;8.40;99.90;;;;;;4362046;32;20407;-69
2021/10/23 14:27:13;;;;;;;2.97;1.47;;;8.10;99.90;;;;;;4363587;32;20176;-70
2021/10/23 14:30:02;;;;;;;4.87;1.70;;;7.70;99.90;;;;;;4358200;32;20440;-71
2021/10/23 14:32:47;;;;;;;3.70;1.50;;;7.20;99.90;;;;;;4362207;32;20497;-70
2021/10/23 14:35:24;;;;;;;5.13;1.60;;;6.60;99.90;;;;;;4363271;32;20427;-70
2021/10/23 14:37:58;;;;;;;3.43;1.47;;;6.30;99.90;;;;;;4361928;32;20474;-68
2021/10/23 14:40:41;;;;;;;3.47;1.73;;;6.10;99.90;;;;;;4361559;32;20216;-69
2021/10/23 14:43:23;;;;;;;3.70;1.77;;;6.00;99.90;;;;;;4361906;32;20206;-70
2021/10/23 14:46:05;;;;;;;3.70;1.93;;;6.00;99.90;;;;;;4362572;32;20198;-70
2021/10/23 14:48:49;;;;;;;3.90;1.60;;;6.00;99.90;;;;;;4348914;33;20211;-70
2021/10/23 14:51:39;;;;;;;5.63;1.80;;;5.90;99.90;;;;;;4368343;32;20140;-69
2021/10/23 14:54:38;;;;;;;3.60;2.00;;;5.90;99.90;;;;;;4391255;32;20152;-70
2021/10/23 14:57:21;;;;;;;5.43;2.20;;;5.90;99.90;;;;;;4391862;32;20159;-69
2021/10/23 15:00:29;;;;;;;5.27;2.50;;;5.90;99.90;;;;;;4390194;32;20418;-68
2021/10/23 15:03:07;;;;;;;5.93;2.20;;;5.90;99.90;;;;;;4391717;32;20144;-70
2021/10/23 15:05:45;;;;;;;6.67;2.50;;;5.90;99.90;;;;;;4391639;32;20207;-69
2021/10/23 15:08:17;;;;;;;5.03;2.40;;;5.90;99.90;;;;;;4391251;32;20154;-69
2021/10/23 15:10:58;;;;;;;5.47;2.30;;;5.90;99.90;;;;;;4391080;32;20168;-69
2021/10/23 15:13:46;;;;;;;3.90;2.00;;;5.90;99.90;;;;;;4392324;32;20141;-68
2021/10/23 15:16:24;;;;;;;5.20;2.30;;;5.80;99.90;;;;;;4391612;32;20545;-69
2021/10/23 15:18:58;;;;;;;6.20;2.40;;;5.80;99.90;;;;;;4391525;32;20554;-68
2021/10/23 15:21:45;;;;;;;5.37;2.20;;;5.70;99.90;;;;;;4391428;32;20439;-69
2021/10/23 15:24:33;;;;;;;3.30;2.20;;;5.70;99.90;;;;;;4391112;32;20140;-68